createdAt,value
2023-02-06T06:20:46.744Z,500.00
2023-02-06T06:21:47.710Z,500.00
2023-02-06T06:22:47.661Z,500.00
2023-02-06T06:23:47.654Z,500.00
2023-02-06T06:24:47.648Z,500.00
2023-02-06T06:25:47.633Z,400.00
2023-02-06T06:26:47.652Z,400.00
2023-02-06T06:27:47.659Z,400.00
2023-02-06T06:28:47.792Z,400.00
2023-02-06T06:29:47.605Z,400.00
2023-02-06T06:30:47.610Z,400.00
2023-02-06T06:31:47.735Z,400.00
2023-02-06T06:32:47.568Z,400.00
2023-02-06T06:33:47.560Z,400.00
2023-02-06T06:34:47.555Z,400.00
2023-02-06T06:35:47.546Z,400.00
2023-02-06T06:36:47.566Z,400.00
2023-02-06T06:37:47.542Z,400.00
2023-02-06T06:38:47.527Z,400.00
2023-02-06T06:39:47.515Z,400.00
2023-02-06T06:40:47.495Z,400.00
2023-02-06T06:41:47.715Z,400.00
2023-02-06T06:42:47.509Z,400.00
2023-02-06T06:43:49.070Z,400.00
2023-02-06T06:44:47.465Z,400.00
2023-02-06T06:45:47.490Z,400.00
2023-02-06T06:46:47.729Z,400.00
2023-02-06T06:47:47.729Z,400.00
2023-02-06T06:48:47.427Z,400.00
2023-02-06T06:49:47.415Z,400.00
2023-02-06T06:50:47.407Z,400.00
2023-02-06T06:51:47.406Z,400.00
2023-02-06T06:52:47.782Z,400.00
2023-02-06T06:53:47.381Z,400.00
2023-02-06T06:54:47.386Z,400.00
2023-02-06T06:55:47.371Z,400.00
2023-02-06T06:56:47.733Z,400.00
2023-02-06T06:57:47.341Z,400.00
2023-02-06T06:58:47.332Z,400.00
2023-02-06T06:59:47.329Z,400.00
2023-02-06T07:00:47.360Z,400.00
2023-02-06T07:01:47.730Z,400.00
2023-02-06T07:02:47.341Z,400.00
2023-02-06T07:03:47.291Z,400.00
2023-02-06T07:04:47.288Z,400.00
2023-02-06T07:05:47.270Z,400.00
2023-02-06T07:06:47.739Z,400.00
2023-02-06T07:07:47.728Z,400.00
2023-02-06T07:08:47.344Z,400.00
2023-02-06T07:09:47.727Z,400.00
2023-02-06T07:10:47.229Z,400.00
2023-02-06T07:11:47.233Z,400.00
2023-02-06T07:12:47.225Z,400.00
2023-02-06T07:13:47.198Z,400.00
2023-02-06T07:14:47.239Z,400.00
2023-02-06T07:15:47.182Z,400.00
2023-02-06T07:16:47.216Z,400.00
2023-02-06T07:17:47.366Z,400.00
2023-02-06T07:18:47.232Z,400.00
2023-02-06T07:19:47.146Z,400.00
2023-02-06T07:20:47.163Z,400.00
2023-02-06T07:21:47.388Z,400.00
2023-02-06T07:22:47.115Z,400.00
2023-02-06T07:23:47.235Z,400.00
2023-02-06T07:24:47.225Z,400.00
2023-02-06T07:25:47.090Z,400.00
2023-02-06T07:26:47.080Z,400.00
2023-02-06T07:27:47.267Z,400.00
2023-02-06T07:28:47.121Z,400.00
2023-02-06T07:29:47.052Z,400.00
2023-02-06T07:30:47.105Z,428.00
2023-02-06T07:31:47.616Z,479.00
2023-02-06T07:32:47.263Z,500.00
2023-02-06T07:33:47.029Z,499.00
2023-02-06T07:34:47.006Z,500.00
2023-02-06T07:35:47.020Z,501.00
2023-02-06T07:36:46.989Z,500.00
2023-02-06T07:37:47.242Z,501.00
2023-02-06T07:38:46.976Z,500.00
2023-02-06T07:39:46.961Z,503.00
2023-02-06T07:40:47.026Z,502.00
2023-02-06T07:41:46.947Z,502.00
2023-02-06T07:42:47.236Z,503.00
2023-02-06T07:43:47.128Z,500.00
2023-02-06T07:44:46.929Z,503.00
2023-02-06T07:45:46.969Z,500.00
2023-02-06T07:46:46.988Z,500.00
2023-02-06T07:47:47.314Z,507.00
2023-02-06T07:48:46.883Z,505.00
2023-02-06T07:49:46.901Z,500.00
2023-02-06T07:50:47.124Z,500.00
2023-02-06T07:51:47.311Z,504.00
2023-02-06T07:52:47.482Z,505.00
2023-02-06T07:53:46.948Z,504.00
2023-02-06T07:54:46.906Z,501.00
2023-02-06T07:55:47.003Z,505.00
2023-02-06T07:56:46.977Z,500.00
2023-02-06T07:57:47.507Z,500.00
2023-02-06T07:58:46.913Z,504.00
2023-02-06T07:59:46.945Z,504.00
2023-02-06T08:00:47.278Z,505.00
2023-02-06T08:01:47.273Z,500.00
2023-02-06T08:02:47.010Z,502.00
2023-02-06T08:03:46.795Z,504.00
2023-02-06T08:04:46.787Z,501.00
2023-02-06T08:05:46.730Z,501.00
2023-02-06T08:06:47.053Z,509.00
2023-02-06T08:07:46.901Z,507.00
2023-02-06T08:08:46.897Z,501.00
2023-02-06T08:09:46.856Z,505.00
2023-02-06T08:10:46.885Z,500.00
2023-02-06T08:11:46.836Z,501.00
2023-02-06T08:12:46.976Z,505.00
2023-02-06T08:13:47.003Z,505.00
2023-02-06T08:14:47.018Z,502.00
2023-02-06T08:15:46.634Z,502.00
2023-02-06T08:16:46.952Z,501.00
2023-02-06T08:17:47.319Z,502.00
2023-02-06T08:18:47.133Z,501.00
2023-02-06T08:19:47.160Z,505.00
2023-02-06T08:20:46.776Z,506.00
2023-02-06T08:21:46.753Z,503.00
2023-02-06T08:22:46.584Z,506.00
2023-02-06T08:23:46.766Z,504.00
2023-02-06T08:24:46.777Z,508.00
2023-02-06T08:25:46.605Z,500.00
2023-02-06T08:26:46.913Z,506.00
2023-02-06T08:27:46.692Z,502.00
2023-02-06T08:28:46.600Z,507.00
2023-02-06T08:29:46.719Z,504.00
2023-02-06T08:30:46.843Z,503.00
2023-02-06T08:31:46.845Z,506.00
2023-02-06T08:32:46.732Z,506.00
2023-02-06T08:33:46.504Z,506.00
2023-02-06T08:34:46.943Z,508.00
2023-02-06T08:35:46.698Z,509.00
2023-02-06T08:36:46.690Z,520.00
2023-02-06T08:37:46.556Z,526.00
2023-02-06T08:38:46.688Z,531.00
2023-02-06T08:39:47.296Z,536.00
2023-02-06T08:40:46.441Z,542.00
2023-02-06T08:41:46.483Z,559.00
2023-02-06T08:42:46.668Z,567.00
2023-02-06T08:43:46.409Z,572.00
2023-02-06T08:44:46.693Z,579.00
2023-02-06T08:45:47.154Z,586.00
2023-02-06T08:46:46.373Z,591.00
2023-02-06T08:47:46.805Z,599.00
2023-02-06T08:48:47.617Z,606.00
2023-02-06T08:49:49.644Z,606.00
2023-02-06T08:50:47.422Z,607.00
2023-02-06T08:51:46.377Z,607.00
2023-02-06T08:52:46.306Z,611.00
2023-02-06T08:53:46.549Z,609.00
2023-02-06T08:54:46.793Z,608.00
2023-02-06T08:55:46.291Z,612.00
2023-02-06T08:56:46.782Z,617.00
2023-02-06T08:57:46.278Z,619.00
2023-02-06T08:58:46.766Z,614.00
2023-02-06T08:59:46.277Z,616.00
2023-02-06T09:00:46.369Z,614.00
2023-02-06T09:01:46.356Z,619.00
2023-02-06T09:02:46.311Z,622.00
2023-02-06T09:03:46.275Z,629.00
2023-02-06T09:04:46.191Z,628.00
2023-02-06T09:05:46.293Z,637.00
2023-02-06T09:06:46.268Z,653.00
2023-02-06T09:07:46.168Z,666.00
2023-02-06T09:08:46.156Z,665.00
2023-02-06T09:09:46.152Z,667.00
2023-02-06T09:10:46.133Z,720.00
2023-02-06T09:11:46.274Z,796.00
2023-02-06T09:12:46.121Z,801.00
2023-02-06T09:13:48.291Z,809.00
2023-02-06T09:14:46.101Z,810.00
2023-02-06T09:15:46.089Z,812.00
2023-02-06T09:16:46.303Z,800.00
2023-02-06T09:17:46.108Z,798.00
2023-02-06T09:18:46.937Z,803.00
2023-02-06T09:19:46.071Z,779.00
2023-02-06T09:20:46.768Z,762.00
2023-02-06T09:21:46.045Z,744.00
2023-02-06T09:22:46.105Z,752.00
2023-02-06T09:23:46.270Z,744.00
2023-02-06T09:24:46.005Z,720.00
2023-02-06T09:25:45.992Z,696.00
2023-02-06T09:26:58.904Z,692.00
2023-02-06T09:27:45.995Z,694.00
2023-02-06T09:28:46.294Z,697.00
2023-02-06T09:29:45.963Z,706.00
2023-02-06T09:30:46.027Z,717.00
2023-02-06T09:31:46.394Z,672.00
2023-02-06T09:32:45.992Z,666.00
2023-02-06T09:33:45.964Z,646.00
2023-02-06T09:34:47.683Z,633.00
2023-02-06T09:35:45.914Z,634.00
2023-02-06T09:36:46.300Z,633.00
2023-02-06T09:37:45.893Z,638.00
2023-02-06T09:38:46.404Z,623.00
2023-02-06T09:39:45.861Z,583.00
2023-02-06T09:40:45.864Z,577.00
2023-02-06T09:41:45.862Z,560.00
2023-02-06T09:42:45.850Z,545.00
2023-02-06T09:43:45.829Z,534.00
2023-02-06T09:44:46.287Z,527.00
2023-02-06T09:45:46.803Z,516.00
2023-02-06T09:46:45.843Z,507.00
2023-02-06T09:47:47.489Z,500.00
2023-02-06T09:48:46.305Z,502.00
2023-02-06T09:49:45.779Z,487.00
2023-02-06T09:50:45.772Z,493.00
2023-02-06T09:51:45.757Z,482.00
2023-02-06T09:52:45.747Z,478.00
2023-02-06T09:53:45.785Z,488.00
2023-02-06T09:54:45.789Z,498.00
2023-02-06T09:55:45.721Z,512.00
2023-02-06T09:56:45.711Z,496.00
2023-02-06T09:57:45.698Z,517.00
2023-02-06T09:58:45.696Z,511.00
2023-02-06T09:59:45.778Z,514.00
2023-02-06T10:00:45.676Z,500.00
2023-02-06T10:01:45.702Z,504.00
2023-02-06T10:02:45.660Z,500.00
2023-02-06T10:03:45.915Z,514.00
2023-02-06T10:04:45.665Z,509.00
2023-02-06T10:05:45.628Z,524.00
2023-02-06T10:06:45.623Z,501.00
2023-02-06T10:07:45.614Z,507.00
2023-02-06T10:08:45.810Z,500.00
2023-02-06T10:09:45.785Z,522.00
2023-02-06T10:10:45.583Z,531.00
2023-02-06T10:11:45.573Z,506.00
2023-02-06T10:12:45.568Z,525.00
2023-02-06T10:13:45.556Z,500.00
2023-02-06T10:14:45.782Z,528.00
2023-02-06T10:15:45.808Z,523.00
2023-02-06T10:16:45.555Z,500.00
2023-02-06T10:17:48.989Z,542.00
2023-02-06T10:18:45.521Z,513.00
2023-02-06T10:19:45.788Z,484.00
2023-02-06T10:20:45.539Z,490.00
2023-02-06T10:21:45.517Z,490.00
2023-02-06T10:22:45.472Z,455.00
2023-02-06T10:23:47.450Z,500.00
2023-02-06T10:24:45.799Z,501.00
2023-02-06T10:25:45.446Z,497.00
2023-02-06T10:26:45.443Z,495.00
2023-02-06T10:27:45.455Z,450.00
2023-02-06T10:28:45.865Z,508.00
2023-02-06T10:29:45.422Z,516.00
2023-02-06T10:30:45.558Z,536.00
2023-02-06T10:31:45.492Z,549.00
2023-02-06T10:32:45.705Z,592.00
2023-02-06T10:33:45.973Z,613.00
2023-02-06T10:34:46.167Z,634.00
2023-02-06T10:35:45.362Z,658.00
2023-02-06T10:36:46.181Z,675.00
2023-02-06T10:37:45.343Z,688.00
2023-02-06T10:38:45.334Z,654.00
2023-02-06T10:39:45.809Z,663.00
2023-02-06T10:40:45.809Z,723.00
2023-02-06T10:41:48.539Z,736.00
2023-02-06T10:42:45.301Z,739.00
2023-02-06T10:43:45.289Z,748.00
2023-02-06T10:44:51.297Z,763.00
2023-02-06T10:45:45.288Z,741.00
2023-02-06T10:46:45.375Z,759.00
2023-02-06T10:47:45.262Z,790.00
2023-02-06T10:48:45.311Z,818.00
2023-02-06T10:49:45.237Z,874.00
2023-02-06T10:50:45.228Z,884.00
2023-02-06T10:51:45.322Z,883.00
2023-02-06T10:52:45.238Z,914.00
2023-02-06T10:53:45.200Z,841.00
2023-02-06T10:54:45.194Z,885.00
2023-02-06T10:55:46.365Z,900.00
2023-02-06T10:56:45.308Z,900.00
2023-02-06T10:57:45.174Z,907.00
2023-02-06T10:58:45.305Z,917.00
2023-02-06T10:59:46.092Z,926.00
2023-02-06T11:00:45.188Z,957.00
2023-02-06T11:01:45.214Z,954.00
2023-02-06T11:02:47.501Z,935.00
2023-02-06T11:03:45.308Z,937.00
2023-02-06T11:04:45.104Z,936.00
2023-02-06T11:05:45.118Z,918.00
2023-02-06T11:06:45.088Z,921.00
2023-02-06T11:07:45.098Z,929.00
2023-02-06T11:08:45.337Z,948.00
2023-02-06T11:09:45.069Z,911.00
2023-02-06T11:10:45.046Z,919.00
2023-02-06T11:11:47.952Z,895.00
2023-02-06T11:12:45.030Z,897.00
2023-02-06T11:13:45.376Z,903.00
2023-02-06T11:14:45.009Z,919.00
2023-02-06T11:15:45.006Z,925.00
2023-02-06T11:16:45.313Z,924.00
2023-02-06T11:17:45.236Z,907.00
2023-02-06T11:18:45.004Z,882.00
2023-02-06T11:19:44.965Z,877.00
2023-02-06T11:20:44.957Z,910.00
2023-02-06T11:21:45.317Z,933.00
2023-02-06T11:22:52.704Z,931.00
2023-02-06T11:23:44.930Z,932.00
2023-02-06T11:24:44.952Z,936.00
2023-02-06T11:25:44.914Z,933.00
2023-02-06T11:26:45.351Z,935.00
2023-02-06T11:27:45.016Z,942.00
2023-02-06T11:28:44.885Z,926.00
2023-02-06T11:29:44.876Z,936.00
2023-02-06T11:30:44.886Z,932.00
2023-02-06T11:31:44.921Z,937.00
2023-02-06T11:32:59.031Z,902.00
2023-02-06T11:33:44.858Z,904.00
2023-02-06T11:34:44.830Z,912.00
2023-02-06T11:35:44.821Z,920.00
2023-02-06T11:36:44.813Z,922.00
2023-02-06T11:37:44.806Z,886.00
2023-02-06T11:38:44.792Z,925.00
2023-02-06T11:39:44.788Z,912.00
2023-02-06T11:40:44.804Z,925.00
2023-02-06T11:41:44.767Z,925.00
2023-02-06T11:42:44.825Z,906.00
2023-02-06T11:43:45.660Z,913.00
2023-02-06T11:44:44.741Z,905.00
2023-02-06T11:45:44.773Z,914.00
2023-02-06T11:46:44.724Z,880.00
2023-02-06T11:47:44.714Z,894.00
2023-02-06T11:48:44.700Z,928.00
2023-02-06T11:49:44.694Z,924.00
2023-02-06T11:50:44.689Z,894.00
2023-02-06T11:51:44.675Z,903.00
2023-02-06T11:52:46.786Z,909.00
2023-02-06T11:53:44.961Z,911.00
2023-02-06T11:54:44.654Z,915.00
2023-02-06T11:55:44.640Z,873.00
2023-02-06T11:56:44.653Z,878.00
2023-02-06T11:57:44.832Z,898.00
2023-02-06T11:58:44.621Z,894.00
2023-02-06T11:59:44.610Z,830.00
2023-02-06T12:00:44.595Z,872.00
2023-02-06T12:01:44.586Z,886.00
2023-02-06T12:02:45.417Z,863.00
2023-02-06T12:03:44.668Z,867.00
2023-02-06T12:04:44.563Z,873.00
2023-02-06T12:05:44.554Z,904.00
2023-02-06T12:06:44.553Z,892.00
2023-02-06T12:07:44.831Z,894.00
2023-02-06T12:08:44.843Z,891.00
2023-02-06T12:09:44.519Z,860.00
2023-02-06T12:10:44.784Z,878.00
2023-02-06T12:11:44.496Z,861.00
2023-02-06T12:12:45.083Z,884.00
2023-02-06T12:13:44.834Z,867.00
2023-02-06T12:14:44.469Z,877.00
2023-02-06T12:15:47.483Z,881.00
2023-02-06T12:16:44.502Z,882.00
2023-02-06T12:17:44.841Z,871.00
2023-02-06T12:18:44.438Z,886.00
2023-02-06T12:19:44.434Z,915.00
2023-02-06T12:20:44.416Z,919.00
2023-02-06T12:21:44.858Z,913.00
2023-02-06T12:22:44.841Z,924.00
2023-02-06T12:23:44.385Z,955.00
2023-02-06T12:24:44.388Z,918.00
2023-02-06T12:25:44.375Z,952.00
2023-02-06T12:26:45.340Z,971.00
2023-02-06T12:27:44.880Z,993.00
2023-02-06T12:28:44.378Z,1016.00
2023-02-06T12:29:44.351Z,1013.00
2023-02-06T12:30:44.395Z,1042.00
2023-02-06T12:31:44.665Z,1079.00
2023-02-06T12:32:44.731Z,1146.00
2023-02-06T12:33:44.662Z,1171.00
2023-02-06T12:34:44.288Z,1171.00
2023-02-06T12:35:44.627Z,1173.00
2023-02-06T12:36:44.262Z,1159.00
2023-02-06T12:37:44.260Z,1121.00
2023-02-06T12:38:44.691Z,1121.00
2023-02-06T12:39:44.520Z,1137.00
2023-02-06T12:40:44.520Z,1156.00
2023-02-06T12:41:44.253Z,1159.00
2023-02-06T12:42:44.558Z,1157.00
2023-02-06T12:43:44.393Z,1154.00
2023-02-06T12:44:44.852Z,1166.00
2023-02-06T12:45:44.505Z,1161.00
2023-02-06T12:46:44.251Z,1131.00
2023-02-06T12:47:44.643Z,1129.00
2023-02-06T12:48:44.345Z,1110.00
2023-02-06T12:49:44.623Z,1089.00
2023-02-06T12:50:44.814Z,1088.00
2023-02-06T12:51:44.535Z,1113.00
2023-02-06T12:52:44.359Z,1129.00
2023-02-06T12:53:44.718Z,1084.00
2023-02-06T12:54:44.395Z,1090.00
2023-02-06T12:55:44.204Z,1100.00
2023-02-06T12:56:44.320Z,1081.00
2023-02-06T12:57:44.072Z,1080.00
2023-02-06T12:58:44.349Z,1094.00
2023-02-06T12:59:57.224Z,1111.00
2023-02-06T13:00:44.074Z,1112.00
2023-02-06T13:01:44.052Z,1113.00
2023-02-06T13:02:44.162Z,1094.00
2023-02-06T13:03:44.348Z,1092.00
2023-02-06T13:04:44.009Z,1089.00
2023-02-06T13:05:44.000Z,1064.00
2023-02-06T13:06:43.996Z,1069.00
2023-02-06T13:07:49.374Z,1074.00
2023-02-06T13:08:44.350Z,1075.00
2023-02-06T13:09:43.970Z,1057.00
2023-02-06T13:10:43.960Z,1040.00
2023-02-06T13:11:43.950Z,999.00
2023-02-06T13:12:43.941Z,1031.00
2023-02-06T13:13:44.357Z,998.00
2023-02-06T13:14:43.927Z,1042.00
2023-02-06T13:15:43.939Z,984.00
2023-02-06T13:16:43.934Z,991.00
2023-02-06T13:17:43.898Z,979.00
2023-02-06T13:18:44.355Z,942.00
2023-02-06T13:19:44.037Z,954.00
2023-02-06T13:20:43.866Z,973.00
2023-02-06T13:21:43.864Z,973.00
2023-02-06T13:22:43.884Z,950.00
2023-02-06T13:23:43.860Z,967.00
2023-02-06T13:24:43.829Z,991.00
2023-02-06T13:25:43.858Z,944.00
2023-02-06T13:26:43.824Z,908.00
2023-02-06T13:27:43.807Z,973.00
2023-02-06T13:28:43.797Z,981.00
2023-02-06T13:29:43.795Z,973.00
2023-02-06T13:30:43.888Z,974.00
2023-02-06T13:31:43.870Z,976.00
2023-02-06T13:32:43.796Z,949.00
2023-02-06T13:33:43.755Z,971.00
2023-02-06T13:34:43.868Z,982.00
2023-02-06T13:35:43.740Z,952.00
2023-02-06T13:36:43.723Z,918.00
2023-02-06T13:37:43.714Z,849.00
2023-02-06T13:38:43.708Z,908.00
2023-02-06T13:39:43.697Z,889.00
2023-02-06T13:40:43.692Z,930.00
2023-02-06T13:41:43.680Z,965.00
2023-02-06T13:42:43.666Z,992.00
2023-02-06T13:43:43.889Z,886.00
2023-02-06T13:44:43.867Z,923.00
2023-02-06T13:45:43.686Z,939.00
2023-02-06T13:46:43.638Z,1027.00
2023-02-06T13:47:43.625Z,1083.00
2023-02-06T13:48:46.555Z,1056.00
2023-02-06T13:49:43.604Z,1057.00
2023-02-06T13:50:43.598Z,1040.00
2023-02-06T13:51:43.872Z,1060.00
2023-02-06T13:52:43.575Z,1059.00
2023-02-06T13:53:43.872Z,1019.00
2023-02-06T13:54:43.563Z,1025.00
2023-02-06T13:55:43.555Z,1043.00
2023-02-06T13:56:43.545Z,1039.00
2023-02-06T13:57:43.870Z,1029.00
2023-02-06T13:58:43.870Z,996.00
2023-02-06T13:59:43.926Z,993.00
2023-02-06T14:00:43.520Z,994.00
2023-02-06T14:01:43.549Z,999.00
2023-02-06T14:02:43.517Z,1002.00
2023-02-06T14:03:43.481Z,1018.00
2023-02-06T14:04:43.499Z,1018.00
2023-02-06T14:05:43.870Z,1002.00
2023-02-06T14:06:43.458Z,961.00
2023-02-06T14:07:43.441Z,863.00
2023-02-06T14:08:43.876Z,808.00
2023-02-06T14:09:44.087Z,814.00
2023-02-06T14:10:43.418Z,872.00
2023-02-06T14:11:43.409Z,970.00
2023-02-06T14:12:43.395Z,1002.00
2023-02-06T14:13:43.880Z,965.00
2023-02-06T14:14:43.378Z,750.00
2023-02-06T14:15:43.417Z,714.00
2023-02-06T14:16:43.358Z,758.00
2023-02-06T14:17:43.354Z,775.00
2023-02-06T14:18:43.383Z,776.00
2023-02-06T14:19:43.370Z,727.00
2023-02-06T14:20:43.355Z,824.00
2023-02-06T14:21:43.309Z,861.00
2023-02-06T14:22:43.304Z,672.00
2023-02-06T14:23:45.399Z,631.00
2023-02-06T14:24:43.343Z,631.00
2023-02-06T14:25:43.291Z,633.00
2023-02-06T14:26:43.268Z,630.00
2023-02-06T14:27:43.261Z,637.00
2023-02-06T14:28:43.261Z,629.00
2023-02-06T14:29:43.238Z,695.00
2023-02-06T14:30:43.397Z,754.00
2023-02-06T14:31:45.862Z,799.00
2023-02-06T14:32:43.217Z,730.00
2023-02-06T14:33:43.204Z,732.00
2023-02-06T14:34:43.192Z,707.00
2023-02-06T14:35:43.378Z,752.00
2023-02-06T14:36:43.406Z,709.00
2023-02-06T14:37:43.161Z,662.00
2023-02-06T14:38:43.162Z,664.00
2023-02-06T14:39:43.156Z,730.00
2023-02-06T14:40:43.166Z,760.00
2023-02-06T14:41:43.127Z,661.00
2023-02-06T14:42:43.117Z,661.00
2023-02-06T14:43:43.402Z,655.00
2023-02-06T14:44:43.095Z,641.00
2023-02-06T14:45:44.919Z,643.00
2023-02-06T14:46:43.121Z,645.00
2023-02-06T14:47:43.072Z,648.00
2023-02-06T14:48:43.088Z,649.00
2023-02-06T14:49:43.053Z,664.00
2023-02-06T14:50:43.051Z,691.00
2023-02-06T14:51:43.039Z,662.00
2023-02-06T14:52:43.059Z,664.00
2023-02-06T14:53:43.030Z,663.00
2023-02-06T14:54:43.013Z,651.00
2023-02-06T14:55:43.008Z,659.00
2023-02-06T14:56:43.009Z,661.00
2023-02-06T14:57:43.005Z,654.00
2023-02-06T14:58:43.009Z,670.00
2023-02-06T14:59:42.965Z,714.00
2023-02-06T15:00:42.990Z,686.00
2023-02-06T15:01:42.962Z,706.00
2023-02-06T15:02:42.943Z,649.00
2023-02-06T15:03:43.032Z,700.00
2023-02-06T15:04:42.922Z,687.00
2023-02-06T15:05:42.915Z,677.00
2023-02-06T15:06:42.911Z,696.00
2023-02-06T15:07:42.895Z,717.00
2023-02-06T15:08:42.918Z,714.00
2023-02-06T15:09:42.881Z,777.00
2023-02-06T15:10:42.864Z,763.00
2023-02-06T15:11:42.862Z,673.00
2023-02-06T15:12:42.851Z,724.00
2023-02-06T15:13:42.836Z,768.00
2023-02-06T15:14:42.834Z,824.00
2023-02-06T15:15:42.995Z,815.00
2023-02-06T15:16:42.814Z,791.00
2023-02-06T15:17:42.838Z,814.00
2023-02-06T15:18:42.794Z,810.00
2023-02-06T15:19:42.798Z,808.00
2023-02-06T15:20:42.792Z,799.00
2023-02-06T15:21:42.780Z,780.00
2023-02-06T15:22:42.758Z,728.00
2023-02-06T15:23:42.914Z,799.00
2023-02-06T15:24:42.769Z,734.00
2023-02-06T15:25:42.732Z,699.00
2023-02-06T15:26:42.727Z,732.00
2023-02-06T15:27:42.718Z,766.00
2023-02-06T15:28:42.705Z,752.00
2023-02-06T15:29:42.695Z,743.00
2023-02-06T15:30:42.713Z,739.00
2023-02-06T15:31:42.976Z,725.00
2023-02-06T15:32:42.670Z,689.00
2023-02-06T15:33:42.660Z,731.00
2023-02-06T15:34:42.663Z,665.00
2023-02-06T15:35:42.645Z,641.00
2023-02-06T15:36:42.637Z,654.00
2023-02-06T15:37:42.640Z,656.00
2023-02-06T15:38:42.620Z,647.00
2023-02-06T15:39:42.613Z,656.00
2023-02-06T15:40:43.431Z,646.00
2023-02-06T15:41:42.592Z,650.00
2023-02-06T15:42:42.583Z,666.00
2023-02-06T15:43:42.578Z,675.00
2023-02-06T15:44:42.568Z,654.00
2023-02-06T15:45:42.576Z,688.00
2023-02-06T15:46:42.582Z,675.00
2023-02-06T15:47:42.543Z,644.00
2023-02-06T15:48:43.793Z,644.00
2023-02-06T15:49:42.533Z,660.00
2023-02-06T15:50:42.509Z,673.00
2023-02-06T15:51:42.524Z,662.00
2023-02-06T15:52:42.500Z,610.00
2023-02-06T15:53:42.497Z,616.00
2023-02-06T15:54:42.477Z,613.00
2023-02-06T15:55:42.464Z,627.00
2023-02-06T15:56:42.481Z,637.00
2023-02-06T15:57:42.447Z,626.00
2023-02-06T15:58:42.440Z,631.00
2023-02-06T15:59:42.428Z,620.00
2023-02-06T16:00:42.421Z,614.00
2023-02-06T16:01:42.432Z,622.00
2023-02-06T16:02:42.400Z,616.00
2023-02-06T16:03:42.398Z,597.00
2023-02-06T16:04:42.381Z,573.00
2023-02-06T16:05:42.377Z,577.00
2023-02-06T16:06:42.478Z,575.00
2023-02-06T16:07:42.382Z,590.00
2023-02-06T16:08:42.364Z,568.00
2023-02-06T16:09:42.338Z,585.00
2023-02-06T16:10:42.327Z,604.00
2023-02-06T16:11:42.354Z,626.00
2023-02-06T16:12:42.364Z,642.00
2023-02-06T16:13:42.300Z,642.00
2023-02-06T16:14:42.292Z,642.00
2023-02-06T16:15:42.285Z,648.00
2023-02-06T16:16:42.310Z,649.00
2023-02-06T16:17:42.300Z,652.00
2023-02-06T16:18:42.258Z,664.00
2023-02-06T16:19:42.254Z,674.00
2023-02-06T16:20:42.254Z,670.00
2023-02-06T16:21:42.237Z,679.00
2023-02-06T16:22:42.509Z,665.00
2023-02-06T16:23:42.215Z,677.00
2023-02-06T16:24:42.966Z,692.00
2023-02-06T16:25:42.202Z,683.00
2023-02-06T16:26:42.188Z,714.00
2023-02-06T16:27:42.425Z,705.00
2023-02-06T16:28:42.188Z,727.00
2023-02-06T16:29:42.157Z,715.00
2023-02-06T16:30:42.220Z,718.00
2023-02-06T16:31:42.390Z,738.00
2023-02-06T16:32:42.140Z,732.00
2023-02-06T16:33:42.114Z,749.00
2023-02-06T16:34:42.117Z,731.00
2023-02-06T16:35:42.100Z,743.00
2023-02-06T16:36:42.087Z,774.00
2023-02-06T16:37:42.096Z,783.00
2023-02-06T16:38:48.280Z,781.00
2023-02-06T16:39:42.060Z,783.00
2023-02-06T16:40:42.051Z,787.00
2023-02-06T16:41:42.042Z,789.00
2023-02-06T16:42:42.431Z,799.00
2023-02-06T16:43:42.024Z,811.00
2023-02-06T16:44:45.271Z,815.00
2023-02-06T16:45:42.002Z,816.00
2023-02-06T16:46:42.007Z,819.00
2023-02-06T16:47:41.984Z,826.00
2023-02-06T16:48:41.978Z,829.00
2023-02-06T16:49:41.969Z,852.00
2023-02-06T16:50:42.923Z,840.00
2023-02-06T16:51:41.957Z,842.00
2023-02-06T16:52:41.971Z,852.00
2023-02-06T16:53:41.930Z,851.00
2023-02-06T16:54:41.925Z,861.00
2023-02-06T16:55:41.916Z,859.00
2023-02-06T16:56:41.908Z,858.00
2023-02-06T16:57:41.896Z,854.00
2023-02-06T16:58:41.883Z,862.00
2023-02-06T16:59:42.428Z,862.00
2023-02-06T17:00:41.900Z,872.00
2023-02-06T17:01:41.960Z,877.00
2023-02-06T17:02:41.850Z,871.00
2023-02-06T17:03:41.844Z,880.00
2023-02-06T17:04:41.876Z,882.00
2023-02-06T17:05:41.825Z,885.00
2023-02-06T17:06:41.812Z,877.00
2023-02-06T17:07:41.830Z,886.00
2023-02-06T17:08:41.802Z,906.00
2023-02-06T17:09:41.787Z,902.00
2023-02-06T17:10:41.778Z,884.00
2023-02-06T17:11:41.766Z,869.00
2023-02-06T17:12:41.774Z,904.00
2023-02-06T17:13:41.752Z,894.00
2023-02-06T17:14:41.748Z,891.00
2023-02-06T17:15:41.781Z,894.00
2023-02-06T17:16:41.754Z,899.00
2023-02-06T17:17:41.725Z,906.00
2023-02-06T17:18:41.705Z,902.00
2023-02-06T17:19:41.717Z,905.00
2023-02-06T17:20:41.698Z,906.00
2023-02-06T17:21:41.680Z,902.00
2023-02-06T17:22:41.674Z,909.00
2023-02-06T17:23:41.660Z,910.00
2023-02-06T17:24:41.687Z,906.00
2023-02-06T17:25:41.640Z,907.00
2023-02-06T17:26:41.633Z,910.00
2023-02-06T17:27:41.633Z,909.00
2023-02-06T17:28:41.615Z,905.00
2023-02-06T17:29:41.609Z,913.00
2023-02-06T17:30:41.786Z,913.00
2023-02-06T17:31:41.610Z,915.00
2023-02-06T17:32:41.606Z,914.00
2023-02-06T17:33:41.580Z,911.00
2023-02-06T17:34:41.561Z,917.00
2023-02-06T17:35:41.556Z,920.00
2023-02-06T17:36:41.545Z,933.00
2023-02-06T17:37:41.551Z,929.00
2023-02-06T17:38:41.526Z,911.00
2023-02-06T17:39:41.518Z,918.00
2023-02-06T17:40:41.949Z,924.00
2023-02-06T17:41:41.500Z,922.00
2023-02-06T17:42:41.494Z,923.00
2023-02-06T17:43:41.479Z,919.00
2023-02-06T17:44:42.599Z,912.00
2023-02-06T17:45:41.468Z,925.00
2023-02-06T17:46:41.537Z,909.00
2023-02-06T17:47:41.458Z,922.00
2023-02-06T17:48:41.469Z,918.00
2023-02-06T17:49:41.429Z,927.00
2023-02-06T17:50:41.434Z,913.00
2023-02-06T17:51:41.408Z,921.00
2023-02-06T17:52:41.404Z,925.00
2023-02-06T17:53:41.421Z,930.00
2023-02-06T17:54:41.382Z,925.00
2023-02-06T17:55:41.372Z,926.00
2023-02-06T17:56:41.373Z,895.00
2023-02-06T17:57:41.354Z,919.00
2023-02-06T17:58:41.346Z,928.00
2023-02-06T17:59:41.368Z,925.00
2023-02-06T18:00:41.330Z,931.00
2023-02-06T18:01:41.361Z,938.00
2023-02-06T18:02:41.360Z,926.00
2023-02-06T18:03:41.306Z,933.00
2023-02-06T18:04:41.343Z,922.00
2023-02-06T18:05:41.290Z,924.00
2023-02-06T18:06:41.333Z,920.00
2023-02-06T18:07:41.269Z,925.00
2023-02-06T18:08:41.258Z,915.00
2023-02-06T18:09:42.284Z,931.00
2023-02-06T18:10:41.237Z,924.00
2023-02-06T18:11:41.255Z,921.00
2023-02-06T18:12:41.222Z,931.00
2023-02-06T18:13:41.211Z,919.00
2023-02-06T18:14:41.201Z,931.00
2023-02-06T18:15:41.287Z,924.00
2023-02-06T18:16:41.189Z,927.00
2023-02-06T18:17:41.182Z,938.00
2023-02-06T18:18:41.189Z,920.00
2023-02-06T18:19:41.158Z,924.00
2023-02-06T18:20:43.618Z,928.00
2023-02-06T18:21:41.139Z,944.00
2023-02-06T18:22:41.351Z,948.00
2023-02-06T18:23:41.176Z,941.00
2023-02-06T18:24:41.112Z,944.00
2023-02-06T18:25:43.178Z,933.00
2023-02-06T18:26:41.093Z,933.00
2023-02-06T18:27:41.084Z,933.00
2023-02-06T18:28:41.174Z,937.00
2023-02-06T18:29:49.341Z,925.00
2023-02-06T18:30:41.076Z,934.00
2023-02-06T18:31:41.065Z,940.00
2023-02-06T18:32:41.037Z,940.00
2023-02-06T18:33:41.022Z,943.00
2023-02-06T18:34:41.019Z,941.00
2023-02-06T18:35:41.005Z,942.00
2023-02-06T18:36:41.029Z,933.00
2023-02-06T18:37:40.992Z,939.00
2023-02-06T18:38:40.978Z,924.00
2023-02-06T18:39:40.969Z,930.00
2023-02-06T18:40:40.964Z,927.00
2023-02-06T18:41:40.949Z,938.00
2023-02-06T18:42:40.956Z,938.00
2023-02-06T18:43:40.930Z,924.00
2023-02-06T18:44:40.927Z,930.00
2023-02-06T18:45:40.913Z,939.00
2023-02-06T18:46:40.980Z,917.00